sensor_id;sensor_type;location;lat;lon;timestamp;pressure;altitude;pressure_sealevel;temperature;humidity
19884;BME280;10104;50.732;10.174;2023-03-16T00:00:06;98396.44;;;0.69;73.66
19884;BME280;10104;50.732;10.174;2023-03-16T00:02:30;98395.38;;;0.71;72.76
19884;BME280;10104;50.732;10.174;2023-03-16T00:04:51;98398.09;;;0.70;72.85
19884;BME280;10104;50.732;10.174;2023-03-16T00:07:13;98393.50;;;0.73;72.56
19884;BME280;10104;50.732;10.174;2023-03-16T00:09:35;98394.72;;;0.57;73.48
19884;BME280;10104;50.732;10.174;2023-03-16T00:12:01;98396.84;;;0.52;72.92
19884;BME280;10104;50.732;10.174;2023-03-16T00:14:24;98390.16;;;0.60;72.49
19884;BME280;10104;50.732;10.174;2023-03-16T00:16:46;98398.06;;;0.59;72.73
19884;BME280;10104;50.732;10.174;2023-03-16T00:19:07;98399.25;;;0.55;72.41
19884;BME280;10104;50.732;10.174;2023-03-16T00:21:29;98393.88;;;0.45;73.41
19884;BME280;10104;50.732;10.174;2023-03-16T00:23:52;98401.13;;;0.53;72.96
19884;BME280;10104;50.732;10.174;2023-03-16T00:26:13;98404.38;;;0.44;73.86
19884;BME280;10104;50.732;10.174;2023-03-16T00:28:35;98399.47;;;0.28;73.86
19884;BME280;10104;50.732;10.174;2023-03-16T00:30:57;98401.34;;;0.26;73.88
19884;BME280;10104;50.732;10.174;2023-03-16T00:33:19;98407.22;;;0.40;73.14
19884;BME280;10104;50.732;10.174;2023-03-16T00:35:45;98401.09;;;0.42;73.01
19884;BME280;10104;50.732;10.174;2023-03-16T00:38:10;98398.81;;;0.37;73.10
19884;BME280;10104;50.732;10.174;2023-03-16T00:40:32;98400.97;;;0.19;74.64
19884;BME280;10104;50.732;10.174;2023-03-16T00:42:54;98402.75;;;0.19;74.12
19884;BME280;10104;50.732;10.174;2023-03-16T00:45:15;98404.69;;;0.28;73.41
19884;BME280;10104;50.732;10.174;2023-03-16T00:47:37;98401.28;;;0.38;72.89
19884;BME280;10104;50.732;10.174;2023-03-16T00:49:59;98399.69;;;0.25;72.95
19884;BME280;10104;50.732;10.174;2023-03-16T00:52:21;98392.25;;;0.31;73.08
19884;BME280;10104;50.732;10.174;2023-03-16T00:54:45;98393.16;;;0.19;74.56
19884;BME280;10104;50.732;10.174;2023-03-16T00:57:07;98391.00;;;0.13;73.97
19884;BME280;10104;50.732;10.174;2023-03-16T00:59:29;98392.22;;;0.20;73.10
19884;BME280;10104;50.732;10.174;2023-03-16T01:01:52;98393.16;;;-0.05;74.96
19884;BME280;10104;50.732;10.174;2023-03-16T01:04:14;98392.88;;;-0.13;75.24
19884;BME280;10104;50.732;10.174;2023-03-16T01:06:35;98392.50;;;0.05;74.01
19884;BME280;10104;50.732;10.174;2023-03-16T01:09:00;98390.41;;;0.10;73.70
19884;BME280;10104;50.732;10.174;2023-03-16T01:11:22;98393.50;;;0.15;73.55
19884;BME280;10104;50.732;10.174;2023-03-16T01:13:45;98386.19;;;0.20;73.28
19884;BME280;10104;50.732;10.174;2023-03-16T01:16:08;98393.50;;;0.15;73.19
19884;BME280;10104;50.732;10.174;2023-03-16T01:18:30;98398.25;;;0.21;73.25
19884;BME280;10104;50.732;10.174;2023-03-16T01:20:55;98394.63;;;0.23;72.92
19884;BME280;10104;50.732;10.174;2023-03-16T01:23:17;98398.88;;;0.24;72.91
19884;BME280;10104;50.732;10.174;2023-03-16T01:25:38;98392.25;;;0.31;72.81
19884;BME280;10104;50.732;10.174;2023-03-16T01:28:01;98389.66;;;0.31;72.78
19884;BME280;10104;50.732;10.174;2023-03-16T01:30:23;98398.88;;;0.24;73.11
19884;BME280;10104;50.732;10.174;2023-03-16T01:32:46;98396.94;;;0.15;74.00
19884;BME280;10104;50.732;10.174;2023-03-16T01:35:07;98396.09;;;0.15;73.77
19884;BME280;10104;50.732;10.174;2023-03-16T01:37:29;98392.84;;;0.00;73.70
19884;BME280;10104;50.732;10.174;2023-03-16T01:39:51;98393.41;;;-0.20;73.96
19884;BME280;10104;50.732;10.174;2023-03-16T01:42:13;98392.88;;;-0.13;73.82
19884;BME280;10104;50.732;10.174;2023-03-16T01:44:54;98393.16;;;-0.05;73.17
19884;BME280;10104;50.732;10.174;2023-03-16T01:47:16;98389.50;;;-0.02;73.46
19884;BME280;10104;50.732;10.174;2023-03-16T01:49:38;98378.16;;;-0.01;73.31
19884;BME280;10104;50.732;10.174;2023-03-16T01:54:46;98374.50;;;0.02;73.12
19884;BME280;10104;50.732;10.174;2023-03-16T01:57:18;98373.56;;;0.03;72.95
19884;BME280;10104;50.732;10.174;2023-03-16T01:59:47;98373.31;;;-0.18;73.27
19884;BME280;10104;50.732;10.174;2023-03-16T02:02:12;98367.06;;;-0.16;72.91
19884;BME280;10104;50.732;10.174;2023-03-16T02:04:47;98361.22;;;-0.07;72.47
19884;BME280;10104;50.732;10.174;2023-03-16T02:07:11;98361.22;;;-0.07;72.77
19884;BME280;10104;50.732;10.174;2023-03-16T02:09:36;98361.31;;;-0.08;72.71
19884;BME280;10104;50.732;10.174;2023-03-16T02:11:59;98361.38;;;-0.21;73.22
19884;BME280;10104;50.732;10.174;2023-03-16T02:14:21;98358.81;;;-0.10;73.41
19884;BME280;10104;50.732;10.174;2023-03-16T02:16:45;98359.81;;;-0.23;73.86
19884;BME280;10104;50.732;10.174;2023-03-16T02:19:11;98355.72;;;-0.15;73.56
19884;BME280;10104;50.732;10.174;2023-03-16T02:24:05;98351.50;;;-0.28;75.38
19884;BME280;10104;50.732;10.174;2023-03-16T02:26:48;98355.22;;;-0.20;75.36
19884;BME280;10104;50.732;10.174;2023-03-16T02:32:10;98359.16;;;-0.14;74.45
19884;BME280;10104;50.732;10.174;2023-03-16T02:34:32;98359.16;;;-0.14;74.27
19884;BME280;10104;50.732;10.174;2023-03-16T02:36:53;98350.13;;;-0.21;73.97
19884;BME280;10104;50.732;10.174;2023-03-16T02:39:17;98360.25;;;-0.29;73.98
19884;BME280;10104;50.732;10.174;2023-03-16T02:41:39;98365.63;;;-0.20;73.66
19884;BME280;10104;50.732;10.174;2023-03-16T02:44:24;98359.50;;;-0.19;73.61
19884;BME280;10104;50.732;10.174;2023-03-16T02:46:46;98355.94;;;-0.18;74.04
19884;BME280;10104;50.732;10.174;2023-03-16T02:49:27;98351.78;;;-0.44;76.81
19884;BME280;10104;50.732;10.174;2023-03-16T02:51:52;98361.84;;;-0.39;75.50
19884;BME280;10104;50.732;10.174;2023-03-16T02:54:13;98358.00;;;-0.47;75.82
19884;BME280;10104;50.732;10.174;2023-03-16T02:56:35;98345.34;;;-0.51;75.46
19884;BME280;10104;50.732;10.174;2023-03-16T02:58:56;98350.31;;;-0.48;75.17
19884;BME280;10104;50.732;10.174;2023-03-16T03:01:18;98348.44;;;-0.46;74.90
19884;BME280;10104;50.732;10.174;2023-03-16T03:03:40;98344.47;;;-0.39;74.73
19884;BME280;10104;50.732;10.174;2023-03-16T03:06:01;98336.66;;;-0.39;74.78
19884;BME280;10104;50.732;10.174;2023-03-16T03:08:23;98337.59;;;-0.40;74.01
19884;BME280;10104;50.732;10.174;2023-03-16T03:10:44;98338.00;;;-0.33;74.41
19884;BME280;10104;50.732;10.174;2023-03-16T03:13:06;98340.78;;;-0.36;74.55
19884;BME280;10104;50.732;10.174;2023-03-16T03:15:28;98338.13;;;-0.48;74.89
19884;BME280;10104;50.732;10.174;2023-03-16T03:17:49;98331.59;;;-0.53;75.59
19884;BME280;10104;50.732;10.174;2023-03-16T03:20:11;98330.66;;;-0.52;75.60
19884;BME280;10104;50.732;10.174;2023-03-16T03:22:40;98332.22;;;-0.50;75.53
19884;BME280;10104;50.732;10.174;2023-03-16T03:25:02;98328.81;;;-0.63;77.30
19884;BME280;10104;50.732;10.174;2023-03-16T03:27:23;98328.19;;;-0.66;76.24
19884;BME280;10104;50.732;10.174;2023-03-16T03:29:45;98331.69;;;-0.55;75.51
19884;BME280;10104;50.732;10.174;2023-03-16T03:32:07;98332.59;;;-0.43;74.76
19884;BME280;10104;50.732;10.174;2023-03-16T03:34:29;98341.03;;;-0.39;74.05
19884;BME280;10104;50.732;10.174;2023-03-16T03:36:51;98335.44;;;-0.46;75.08
19884;BME280;10104;50.732;10.174;2023-03-16T03:39:13;98336.59;;;-0.50;74.85
19884;BME280;10104;50.732;10.174;2023-03-16T03:41:35;98337.53;;;-0.51;75.53
19884;BME280;10104;50.732;10.174;2023-03-16T03:43:58;98329.94;;;-0.54;75.23
19884;BME280;10104;50.732;10.174;2023-03-16T03:46:20;98327.72;;;-0.48;75.35
19884;BME280;10104;50.732;10.174;2023-03-16T03:48:41;98321.63;;;-0.59;77.07
19884;BME280;10104;50.732;10.174;2023-03-16T03:51:03;98321.97;;;-0.64;76.56
19884;BME280;10104;50.732;10.174;2023-03-16T03:53:25;98320.25;;;-0.89;77.89
19884;BME280;10104;50.732;10.174;2023-03-16T03:55:47;98313.13;;;-0.74;77.34
19884;BME280;10104;50.732;10.174;2023-03-16T03:58:10;98318.91;;;-0.94;78.02
19884;BME280;10104;50.732;10.174;2023-03-16T04:00:32;98315.44;;;-0.82;77.12
19884;BME280;10104;50.732;10.174;2023-03-16T04:02:54;98305.97;;;-0.70;76.31
19884;BME280;10104;50.732;10.174;2023-03-16T04:05:15;98298.66;;;-0.65;76.17
19884;BME280;10104;50.732;10.174;2023-03-16T04:07:37;98311.50;;;-0.75;76.55
19884;BME280;10104;50.732;10.174;2023-03-16T04:09:59;98309.00;;;-0.76;76.92
19884;BME280;10104;50.732;10.174;2023-03-16T04:12:21;98309.59;;;-0.73;76.51
19884;BME280;10104;50.732;10.174;2023-03-16T04:14:43;98314.50;;;-0.68;76.36
19884;BME280;10104;50.732;10.174;2023-03-16T04:17:04;98315.59;;;-0.60;76.14
19884;BME280;10104;50.732;10.174;2023-03-16T04:19:26;98315.25;;;-0.55;75.96
19884;BME280;10104;50.732;10.174;2023-03-16T04:21:49;98313.28;;;-0.52;76.42
19884;BME280;10104;50.732;10.174;2023-03-16T04:24:10;98315.16;;;-0.54;76.43
19884;BME280;10104;50.732;10.174;2023-03-16T04:26:35;98323.78;;;-0.53;76.55
19884;BME280;10104;50.732;10.174;2023-03-16T04:28:57;98316.66;;;-0.62;77.20
19884;BME280;10104;50.732;10.174;2023-03-16T04:31:18;98319.06;;;-0.72;78.02
19884;BME280;10104;50.732;10.174;2023-03-16T04:33:40;98314.97;;;-0.51;76.61
19884;BME280;10104;50.732;10.174;2023-03-16T04:36:04;98313.84;;;-0.72;77.60
19884;BME280;10104;50.732;10.174;2023-03-16T04:38:25;98312.91;;;-0.58;76.25
19884;BME280;10104;50.732;10.174;2023-03-16T04:40:47;98315.94;;;-0.64;76.93
19884;BME280;10104;50.732;10.174;2023-03-16T04:43:08;98323.09;;;-0.68;77.83
19884;BME280;10104;50.732;10.174;2023-03-16T04:45:30;98324.06;;;-0.69;78.10
19884;BME280;10104;50.732;10.174;2023-03-16T04:47:53;98325.16;;;-0.60;77.53
19884;BME280;10104;50.732;10.174;2023-03-16T04:50:14;98321.84;;;-0.62;77.62
19884;BME280;10104;50.732;10.174;2023-03-16T04:52:36;98320.81;;;-0.72;79.32
19884;BME280;10104;50.732;10.174;2023-03-16T04:54:58;98317.38;;;-0.73;78.86
19884;BME280;10104;50.732;10.174;2023-03-16T04:57:19;98317.69;;;-0.65;78.23
19884;BME280;10104;50.732;10.174;2023-03-16T04:59:41;98327.47;;;-0.56;79.53
19884;BME280;10104;50.732;10.174;2023-03-16T05:02:02;98318.84;;;-0.69;80.09
19884;BME280;10104;50.732;10.174;2023-03-16T05:04:24;98322.47;;;-0.59;79.61
19884;BME280;10104;50.732;10.174;2023-03-16T05:06:45;98318.09;;;-0.58;79.29
19884;BME280;10104;50.732;10.174;2023-03-16T05:09:07;98311.03;;;-0.56;78.29
19884;BME280;10104;50.732;10.174;2023-03-16T05:11:29;98312.47;;;-0.52;78.56
19884;BME280;10104;50.732;10.174;2023-03-16T05:13:51;98306.66;;;-0.56;78.32
19884;BME280;10104;50.732;10.174;2023-03-16T05:16:12;98301.47;;;-0.56;78.40
19884;BME280;10104;50.732;10.174;2023-03-16T05:18:34;98295.06;;;-0.75;80.85
19884;BME280;10104;50.732;10.174;2023-03-16T05:20:55;98308.22;;;-0.66;81.34
19884;BME280;10104;50.732;10.174;2023-03-16T05:23:17;98293.75;;;-0.94;82.65
19884;BME280;10104;50.732;10.174;2023-03-16T05:25:38;98293.94;;;-1.09;82.19
19884;BME280;10104;50.732;10.174;2023-03-16T05:28:00;98294.59;;;-1.18;83.14
19884;BME280;10104;50.732;10.174;2023-03-16T05:30:22;98289.81;;;-1.12;82.53
19884;BME280;10104;50.732;10.174;2023-03-16T05:32:44;98287.34;;;-1.39;84.54
19884;BME280;10104;50.732;10.174;2023-03-16T05:35:06;98291.78;;;-1.15;83.75
19884;BME280;10104;50.732;10.174;2023-03-16T05:37:28;98289.59;;;-1.09;83.79
19884;BME280;10104;50.732;10.174;2023-03-16T05:39:50;98284.69;;;-0.88;82.46
19884;BME280;10104;50.732;10.174;2023-03-16T05:42:11;98300.50;;;-1.16;86.23
19884;BME280;10104;50.732;10.174;2023-03-16T05:44:33;98305.09;;;-1.07;85.91
19884;BME280;10104;50.732;10.174;2023-03-16T05:46:54;98302.16;;;-0.90;83.74
19884;BME280;10104;50.732;10.174;2023-03-16T05:49:16;98307.66;;;-0.82;83.78
19884;BME280;10104;50.732;10.174;2023-03-16T05:51:38;98304.13;;;-0.81;85.40
19884;BME280;10104;50.732;10.174;2023-03-16T05:53:59;98310.53;;;-0.74;85.31
19884;BME280;10104;50.732;10.174;2023-03-16T05:56:23;98314.34;;;-0.67;84.99
19884;BME280;10104;50.732;10.174;2023-03-16T05:58:45;98314.91;;;-0.62;84.62
19884;BME280;10104;50.732;10.174;2023-03-16T06:01:06;98316.88;;;-0.42;83.36
19884;BME280;10104;50.732;10.174;2023-03-16T06:03:29;98309.63;;;-0.49;84.08
19884;BME280;10104;50.732;10.174;2023-03-16T06:05:51;98306.50;;;-0.42;83.86
19884;BME280;10104;50.732;10.174;2023-03-16T06:08:13;98304.22;;;-0.46;84.13
19884;BME280;10104;50.732;10.174;2023-03-16T06:10:35;98299.31;;;-0.38;85.08
19884;BME280;10104;50.732;10.174;2023-03-16T06:12:57;98308.81;;;-0.50;86.63
19884;BME280;10104;50.732;10.174;2023-03-16T06:15:20;98312.56;;;-0.54;87.19
19884;BME280;10104;50.732;10.174;2023-03-16T06:17:45;98313.59;;;-0.44;86.47
19884;BME280;10104;50.732;10.174;2023-03-16T06:20:08;98309.81;;;-0.39;86.44
19884;BME280;10104;50.732;10.174;2023-03-16T06:22:31;98316.22;;;-0.56;89.63
19884;BME280;10104;50.732;10.174;2023-03-16T06:24:53;98312.41;;;-0.39;88.43
19884;BME280;10104;50.732;10.174;2023-03-16T06:27:14;98318.94;;;-0.34;88.47
19884;BME280;10104;50.732;10.174;2023-03-16T06:29:36;98317.63;;;-0.16;88.60
19884;BME280;10104;50.732;10.174;2023-03-16T06:31:57;98322.88;;;-0.05;88.87
19884;BME280;10104;50.732;10.174;2023-03-16T06:34:19;98323.66;;;-0.15;91.04
19884;BME280;10104;50.732;10.174;2023-03-16T06:36:41;98321.06;;;0.09;89.50
19884;BME280;10104;50.732;10.174;2023-03-16T06:39:02;98321.84;;;-0.02;91.52
19884;BME280;10104;50.732;10.174;2023-03-16T06:41:24;98329.22;;;0.04;91.70
19884;BME280;10104;50.732;10.174;2023-03-16T06:43:46;98329.72;;;0.20;91.45
19884;BME280;10104;50.732;10.174;2023-03-16T06:46:07;98328.75;;;0.10;92.27
19884;BME280;10104;50.732;10.174;2023-03-16T06:48:29;98323.09;;;0.16;91.98
19884;BME280;10104;50.732;10.174;2023-03-16T06:50:51;98320.16;;;0.21;92.74
19884;BME280;10104;50.732;10.174;2023-03-16T06:53:13;98322.53;;;0.24;92.39
19884;BME280;10104;50.732;10.174;2023-03-16T06:55:34;98331.88;;;0.26;93.14
19884;BME280;10104;50.732;10.174;2023-03-16T06:57:56;98340.19;;;0.31;93.45
19884;BME280;10104;50.732;10.174;2023-03-16T07:00:18;98333.06;;;0.22;94.21
19884;BME280;10104;50.732;10.174;2023-03-16T07:02:40;98334.94;;;0.20;95.06
19884;BME280;10104;50.732;10.174;2023-03-16T07:05:02;98335.81;;;0.32;94.84
19884;BME280;10104;50.732;10.174;2023-03-16T07:07:24;98332.81;;;0.49;94.28
19884;BME280;10104;50.732;10.174;2023-03-16T07:09:47;98339.78;;;0.49;93.68
19884;BME280;10104;50.732;10.174;2023-03-16T07:12:09;98336.38;;;0.59;93.33
19884;BME280;10104;50.732;10.174;2023-03-16T07:14:31;98345.22;;;0.46;93.92
19884;BME280;10104;50.732;10.174;2023-03-16T07:16:52;98344.19;;;0.59;93.51
19884;BME280;10104;50.732;10.174;2023-03-16T07:19:14;98353.81;;;0.70;93.29
19884;BME280;10104;50.732;10.174;2023-03-16T07:21:35;98354.31;;;0.86;92.44
19884;BME280;10104;50.732;10.174;2023-03-16T07:24:01;98357.06;;;0.96;90.92
19884;BME280;10104;50.732;10.174;2023-03-16T07:26:22;98351.47;;;0.89;91.21
19884;BME280;10104;50.732;10.174;2023-03-16T07:28:43;98356.94;;;0.86;91.79
19884;BME280;10104;50.732;10.174;2023-03-16T07:31:05;98346.25;;;0.78;91.95
19884;BME280;10104;50.732;10.174;2023-03-16T07:33:27;98352.94;;;1.04;90.86
19884;BME280;10104;50.732;10.174;2023-03-16T07:35:48;98353.75;;;1.05;90.56
19884;BME280;10104;50.732;10.174;2023-03-16T07:38:10;98352.47;;;1.10;91.30
19884;BME280;10104;50.732;10.174;2023-03-16T07:40:32;98349.75;;;1.23;90.25
19884;BME280;10104;50.732;10.174;2023-03-16T07:42:55;98360.28;;;1.33;90.16
19884;BME280;10104;50.732;10.174;2023-03-16T07:45:16;98361.91;;;1.67;88.14
19884;BME280;10104;50.732;10.174;2023-03-16T07:47:38;98354.41;;;1.74;88.19
19884;BME280;10104;50.732;10.174;2023-03-16T07:49:59;98355.44;;;1.93;87.72
19884;BME280;10104;50.732;10.174;2023-03-16T07:52:22;98353.28;;;1.98;88.05
19884;BME280;10104;50.732;10.174;2023-03-16T07:54:44;98348.19;;;2.29;86.88
19884;BME280;10104;50.732;10.174;2023-03-16T07:57:06;98340.63;;;2.26;87.17
19884;BME280;10104;50.732;10.174;2023-03-16T07:59:28;98346.41;;;2.40;87.55
19884;BME280;10104;50.732;10.174;2023-03-16T08:01:49;98350.13;;;2.27;89.13
19884;BME280;10104;50.732;10.174;2023-03-16T08:04:10;98353.47;;;2.50;88.29
19884;BME280;10104;50.732;10.174;2023-03-16T08:06:32;98350.91;;;2.80;86.62
19884;BME280;10104;50.732;10.174;2023-03-16T08:08:54;98346.66;;;2.79;86.49
19884;BME280;10104;50.732;10.174;2023-03-16T08:11:15;98348.63;;;2.87;86.09
19884;BME280;10104;50.732;10.174;2023-03-16T08:13:43;98352.50;;;2.92;85.84
19884;BME280;10104;50.732;10.174;2023-03-16T08:16:07;98355.19;;;3.02;85.69
19884;BME280;10104;50.732;10.174;2023-03-16T08:18:31;98348.75;;;3.06;85.65
19884;BME280;10104;50.732;10.174;2023-03-16T08:20:52;98349.34;;;3.19;85.78
19884;BME280;10104;50.732;10.174;2023-03-16T08:23:15;98344.97;;;3.19;85.33
19884;BME280;10104;50.732;10.174;2023-03-16T08:25:37;98344.00;;;3.20;85.50
19884;BME280;10104;50.732;10.174;2023-03-16T08:27:59;98341.00;;;3.25;86.22
19884;BME280;10104;50.732;10.174;2023-03-16T08:30:20;98341.72;;;3.37;85.67
19884;BME280;10104;50.732;10.174;2023-03-16T08:32:43;98342.38;;;3.29;87.19
19884;BME280;10104;50.732;10.174;2023-03-16T08:35:06;98333.16;;;3.35;87.53
19884;BME280;10104;50.732;10.174;2023-03-16T08:37:28;98338.56;;;3.33;87.79
19884;BME280;10104;50.732;10.174;2023-03-16T08:39:49;98340.88;;;3.36;88.16
19884;BME280;10104;50.732;10.174;2023-03-16T08:42:11;98336.97;;;3.51;87.24
19884;BME280;10104;50.732;10.174;2023-03-16T08:44:35;98334.88;;;3.45;87.70
19884;BME280;10104;50.732;10.174;2023-03-16T08:46:57;98333.25;;;3.54;87.79
19884;BME280;10104;50.732;10.174;2023-03-16T08:49:21;98326.53;;;3.71;86.80
19884;BME280;10104;50.732;10.174;2023-03-16T08:51:44;98336.88;;;3.72;87.21
19884;BME280;10104;50.732;10.174;2023-03-16T08:54:06;98336.91;;;3.91;85.47
19884;BME280;10104;50.732;10.174;2023-03-16T08:56:28;98326.53;;;3.71;86.30
19884;BME280;10104;50.732;10.174;2023-03-16T08:58:50;98331.91;;;3.69;87.50
19884;BME280;10104;50.732;10.174;2023-03-16T09:01:14;98335.41;;;3.98;86.82
19884;BME280;10104;50.732;10.174;2023-03-16T09:03:38;98328.09;;;4.02;86.29
19884;BME280;10104;50.732;10.174;2023-03-16T09:06:03;98334.03;;;3.94;86.72
19884;BME280;10104;50.732;10.174;2023-03-16T09:08:25;98331.41;;;3.94;86.81
19884;BME280;10104;50.732;10.174;2023-03-16T09:10:46;98329.59;;;3.85;88.06
19884;BME280;10104;50.732;10.174;2023-03-16T09:13:08;98340.09;;;4.04;86.68
19884;BME280;10104;50.732;10.174;2023-03-16T09:15:29;98335.13;;;3.92;87.22
19884;BME280;10104;50.732;10.174;2023-03-16T09:17:51;98343.69;;;4.03;86.91
19884;BME280;10104;50.732;10.174;2023-03-16T09:20:15;98343.16;;;4.10;87.19
19884;BME280;10104;50.732;10.174;2023-03-16T09:22:46;98338.06;;;4.27;86.34
19884;BME280;10104;50.732;10.174;2023-03-16T09:25:08;98332.09;;;4.44;85.17
19884;BME280;10104;50.732;10.174;2023-03-16T09:27:32;98331.44;;;4.42;84.99
19884;BME280;10104;50.732;10.174;2023-03-16T09:29:54;98335.84;;;4.32;85.52
19884;BME280;10104;50.732;10.174;2023-03-16T09:32:16;98335.56;;;4.55;85.31
19884;BME280;10104;50.732;10.174;2023-03-16T09:34:39;98335.16;;;4.59;85.11
19884;BME280;10104;50.732;10.174;2023-03-16T09:37:00;98324.41;;;4.43;86.20
19884;BME280;10104;50.732;10.174;2023-03-16T09:39:22;98333.50;;;4.48;86.18
19884;BME280;10104;50.732;10.174;2023-03-16T09:41:49;98324.66;;;4.59;84.49
19884;BME280;10104;50.732;10.174;2023-03-16T09:46:44;98316.53;;;4.53;84.06
19884;BME280;10104;50.732;10.174;2023-03-16T09:49:08;98317.22;;;4.55;85.62
19884;BME280;10104;50.732;10.174;2023-03-16T09:51:35;98316.06;;;4.76;84.55
19884;BME280;10104;50.732;10.174;2023-03-16T09:54:01;98310.00;;;4.76;83.29
19884;BME280;10104;50.732;10.174;2023-03-16T09:56:31;98304.88;;;4.94;83.42
19884;BME280;10104;50.732;10.174;2023-03-16T09:58:54;98315.91;;;4.97;84.76
19884;BME280;10104;50.732;10.174;2023-03-16T10:01:45;98317.94;;;5.03;82.01
19884;BME280;10104;50.732;10.174;2023-03-16T10:04:56;98313.03;;;5.27;81.43
19884;BME280;10104;50.732;10.174;2023-03-16T10:07:45;98303.16;;;5.02;81.52
19884;BME280;10104;50.732;10.174;2023-03-16T10:12:36;98312.63;;;5.22;79.83
19884;BME280;10104;50.732;10.174;2023-03-16T10:15:05;98306.03;;;5.18;79.27
19884;BME280;10104;50.732;10.174;2023-03-16T10:17:36;98302.97;;;5.23;79.60
19884;BME280;10104;50.732;10.174;2023-03-16T10:20:03;98304.88;;;5.31;78.05
19884;BME280;10104;50.732;10.174;2023-03-16T10:22:31;98314.09;;;5.35;79.55
19884;BME280;10104;50.732;10.174;2023-03-16T10:27:27;98309.81;;;5.34;80.48
19884;BME280;10104;50.732;10.174;2023-03-16T10:29:50;98313.53;;;5.41;81.98
19884;BME280;10104;50.732;10.174;2023-03-16T10:32:15;98312.97;;;5.37;79.55
19884;BME280;10104;50.732;10.174;2023-03-16T10:34:37;98305.22;;;5.45;79.79
19884;BME280;10104;50.732;10.174;2023-03-16T10:36:58;98307.34;;;5.59;78.82
19884;BME280;10104;50.732;10.174;2023-03-16T10:39:23;98301.72;;;5.54;80.72
19884;BME280;10104;50.732;10.174;2023-03-16T10:41:53;98304.72;;;5.59;81.13
19884;BME280;10104;50.732;10.174;2023-03-16T10:44:22;98299.13;;;5.72;80.79
19884;BME280;10104;50.732;10.174;2023-03-16T10:46:50;98301.16;;;5.78;79.89
19884;BME280;10104;50.732;10.174;2023-03-16T10:49:44;98303.19;;;5.84;79.03
19884;BME280;10104;50.732;10.174;2023-03-16T10:52:21;98298.38;;;6.07;77.94
19884;BME280;10104;50.732;10.174;2023-03-16T10:54:53;98287.19;;;6.23;74.99
19884;BME280;10104;50.732;10.174;2023-03-16T10:57:19;98282.16;;;6.29;76.68
19884;BME280;10104;50.732;10.174;2023-03-16T10:59:47;98277.22;;;6.52;74.53
19884;BME280;10104;50.732;10.174;2023-03-16T11:02:18;98276.38;;;6.69;71.58
19884;BME280;10104;50.732;10.174;2023-03-16T11:04:41;98275.75;;;6.75;72.71
19884;BME280;10104;50.732;10.174;2023-03-16T11:07:06;98268.88;;;6.82;69.75
19884;BME280;10104;50.732;10.174;2023-03-16T11:09:32;98259.25;;;6.91;67.99
19884;BME280;10104;50.732;10.174;2023-03-16T11:11:53;98259.91;;;6.93;69.13
19884;BME280;10104;50.732;10.174;2023-03-16T11:14:19;98257.59;;;6.90;71.29
19884;BME280;10104;50.732;10.174;2023-03-16T11:19:31;98251.69;;;7.30;68.37
19884;BME280;10104;50.732;10.174;2023-03-16T11:22:03;98254.22;;;7.40;67.60
19884;BME280;10104;50.732;10.174;2023-03-16T11:27:23;98250.19;;;7.69;63.26
19884;BME280;10104;50.732;10.174;2023-03-16T11:30:00;98249.56;;;7.92;62.73
19884;BME280;10104;50.732;10.174;2023-03-16T11:32:30;98232.91;;;7.83;60.62
19884;BME280;10104;50.732;10.174;2023-03-16T11:34:53;98250.22;;;7.94;59.20
19884;BME280;10104;50.732;10.174;2023-03-16T11:37:24;98239.00;;;7.92;56.62
19884;BME280;10104;50.732;10.174;2023-03-16T11:45:18;98217.28;;;8.22;56.00
19884;BME280;10104;50.732;10.174;2023-03-16T11:47:51;98224.38;;;8.54;56.59
19884;BME280;10104;50.732;10.174;2023-03-16T11:53:26;98221.09;;;8.44;54.38
19884;BME280;10104;50.732;10.174;2023-03-16T11:56:02;98215.78;;;8.52;56.41
19884;BME280;10104;50.732;10.174;2023-03-16T12:09:23;98202.69;;;8.91;53.78
19884;BME280;10104;50.732;10.174;2023-03-16T12:14:51;98187.53;;;8.85;54.19
19884;BME280;10104;50.732;10.174;2023-03-16T12:17:19;98197.44;;;9.30;54.64
19884;BME280;10104;50.732;10.174;2023-03-16T12:19:51;98193.53;;;9.10;52.27
19884;BME280;10104;50.732;10.174;2023-03-16T12:22:19;98191.25;;;9.07;53.79
19884;BME280;10104;50.732;10.174;2023-03-16T12:24:45;98192.09;;;8.99;53.34
19884;BME280;10104;50.732;10.174;2023-03-16T12:27:12;98190.97;;;8.93;53.96
19884;BME280;10104;50.732;10.174;2023-03-16T12:29:58;98191.19;;;9.23;53.87
19884;BME280;10104;50.732;10.174;2023-03-16T12:32:34;98183.25;;;9.23;55.13
19884;BME280;10104;50.732;10.174;2023-03-16T12:35:29;98180.16;;;9.19;55.15
19884;BME280;10104;50.732;10.174;2023-03-16T12:38:15;98175.94;;;9.33;53.71
19884;BME280;10104;50.732;10.174;2023-03-16T12:43:30;98174.28;;;9.86;52.16
19884;BME280;10104;50.732;10.174;2023-03-16T12:46:10;98163.13;;;9.98;51.95
19884;BME280;10104;50.732;10.174;2023-03-16T12:48:37;98162.66;;;10.18;52.13
19884;BME280;10104;50.732;10.174;2023-03-16T12:51:02;98143.53;;;10.45;52.13
19884;BME280;10104;50.732;10.174;2023-03-16T12:54:16;98132.22;;;10.80;51.82
19884;BME280;10104;50.732;10.174;2023-03-16T12:56:11;98127.88;;;10.73;49.54
19884;BME280;10104;50.732;10.174;2023-03-16T12:58:33;98127.44;;;11.20;49.92
19884;BME280;10104;50.732;10.174;2023-03-16T13:00:57;98125.91;;;11.47;50.36
19884;BME280;10104;50.732;10.174;2023-03-16T13:03:20;98128.00;;;11.72;48.11
19884;BME280;10104;50.732;10.174;2023-03-16T13:05:45;98126.81;;;11.54;47.23
19884;BME280;10104;50.732;10.174;2023-03-16T13:08:12;98133.53;;;11.56;48.48
19884;BME280;10104;50.732;10.174;2023-03-16T13:10:37;98132.31;;;11.73;48.91
19884;BME280;10104;50.732;10.174;2023-03-16T13:13:19;98130.03;;;11.70;47.39
19884;BME280;10104;50.732;10.174;2023-03-16T13:15:45;98125.63;;;11.78;47.76
19884;BME280;10104;50.732;10.174;2023-03-16T13:20:31;98108.25;;;12.24;46.64
19884;BME280;10104;50.732;10.174;2023-03-16T13:28:27;98082.25;;;12.82;45.69
19884;BME280;10104;50.732;10.174;2023-03-16T13:30:50;98088.53;;;12.68;44.78
19884;BME280;10104;50.732;10.174;2023-03-16T13:33:18;98085.03;;;13.08;44.28